Cornion — CQMH — position and weather

sailwx.info

Track history (hours):
 
Tides and Currents Weather Stations Pressure Air Temp Water Temp Dewpoint Dewpoint Depression Visibility Wind Speed Wind Dir Waves Ship Positions

Cornion

Last reported at 2018-May-23 05:09 UTC. Time now 2018-May-23 10:28 UTC.
Position N 36°43' W 008°51'.

Length 90 m; draft 6.5 m.

Type: Cargo ship. MMSI: 255803370.

Date/timePositionNaut miles runAvg speedWind from/ knotsBaromVisibWave heightAir tempDewpointWater temp
2018-May-23 05:09N 36°43' W 008°51'2 9.9
2018-May-23 04:58N 36°43' W 008°49'3210.3
2018-May-23 01:50N 36°43' W 008°09'510.5
2018-May-23 01:24N 36°44' W 008°03'  
2018-May-19 23:24N 36°44' W 009°30'4 9.2
2018-May-19 22:57N 36°47' W 009°33'4 9.5
2018-May-19 22:29N 36°51' W 009°34'5 9.5
2018-May-19 21:58N 36°56' W 009°36'5 9.7
2018-May-19 21:26N 37°01' W 009°37'26 9.5
2018-May-19 18:39N 37°27' W 009°44'1 9.6
2018-May-19 18:30N 37°28' W 009°45'5 9.7
2018-May-19 18:00N 37°33' W 009°47'5 9.8
2018-May-19 17:30N 37°38' W 009°48'5 9.7
2018-May-19 17:00N 37°42' W 009°49'5 9.7
2018-May-19 16:30N 37°47' W 009°50'5 9.8
2018-May-19 16:00N 37°52' W 009°51'5 9.7
2018-May-19 15:30N 37°57' W 009°53'5 9.5
2018-May-19 14:59N 38°01' W 009°54'4 9.2
2018-May-19 14:30N 38°06' W 009°56'5 9.4
2018-May-19 14:00N 38°10' W 009°57'510.0
2018-May-19 13:30N 38°15' W 009°58'5 9.7
2018-May-19 12:58N 38°20' W 009°60'510.0
2018-May-19 12:29N 38°25' W 010°01'13 9.9
2018-May-19 11:09N 38°38' W 010°05'1 9.7
2018-May-19 11:00N 38°39' W 010°05'5 9.6
2018-May-19 10:30N 38°44' W 010°06'1210.0
2018-May-19 09:21N 38°56' W 010°06'411.1
2018-May-19 09:00N 38°59' W 010°06'510.7
2018-May-19 08:30N 39°05' W 010°06'  
2018-May-16 17:33N 48°08' W 005°12'5 8.0
2018-May-16 16:59N 48°10' W 005°06'4 7.5
2018-May-16 16:30N 48°11' W 005°01'4 8.8
2018-May-16 16:00N 48°14' W 004°55'4 8.9
2018-May-16 15:30N 48°16' W 004°49'4 9.1
2018-May-16 15:00N 48°18' W 004°43'5 9.4
2018-May-16 14:30N 48°20' W 004°37'4 7.0
2018-May-16 14:00N 48°21' W 004°32'4 7.5
2018-May-16 13:30N 48°23' W 004°27'0 0.5
2018-May-16 12:59N 48°23' W 004°27'0 0.0
2018-May-16 12:29N 48°23' W 004°27'0 0.0
2018-May-16 11:59N 48°23' W 004°27'0 0.0
2018-May-16 11:29N 48°23' W 004°27'0 0.0
2018-May-16 10:59N 48°23' W 004°27'0 0.0
2018-May-16 10:29N 48°23' W 004°27'0 0.0
2018-May-16 09:59N 48°23' W 004°27'0 0.0
2018-May-16 09:29N 48°23' W 004°27'0 0.0
2018-May-16 08:59N 48°23' W 004°27'0 0.0
2018-May-16 08:29N 48°23' W 004°27'0 0.0
2018-May-16 07:59N 48°23' W 004°27'0 0.0
2018-May-16 07:29N 48°23' W 004°27'0 0.0
2018-May-16 06:59N 48°23' W 004°27'0 0.0
2018-May-16 06:29N 48°23' W 004°27'0 0.0
2018-May-16 05:59N 48°23' W 004°27'0 0.0
2018-May-16 05:29N 48°23' W 004°27'0 0.0
2018-May-16 04:59N 48°23' W 004°27'0 0.0
2018-May-16 04:29N 48°23' W 004°27'0 0.0
2018-May-16 03:59N 48°23' W 004°27'0 0.0
2018-May-16 03:29N 48°23' W 004°27'0 0.0
2018-May-16 02:59N 48°23' W 004°27'0 0.0
2018-May-16 02:29N 48°23' W 004°27'0 0.0
2018-May-16 01:59N 48°23' W 004°27'0 0.0
2018-May-16 01:29N 48°23' W 004°27'0 0.0
2018-May-16 00:59N 48°23' W 004°27'0 0.0
2018-May-16 00:29N 48°23' W 004°27'0 0.0
2018-May-15 23:59N 48°23' W 004°27'0 0.0
2018-May-15 23:29N 48°23' W 004°27'0 0.0
2018-May-15 22:59N 48°23' W 004°27'0 0.0
2018-May-15 22:29N 48°23' W 004°27'0 0.0
2018-May-15 21:59N 48°23' W 004°27'0 0.0
2018-May-15 21:29N 48°23' W 004°27'0 0.0
2018-May-15 20:59N 48°23' W 004°27'0 0.0
2018-May-15 20:29N 48°23' W 004°27'0 0.0
2018-May-15 19:59N 48°23' W 004°27'0 0.0
2018-May-15 19:29N 48°23' W 004°27'0 0.0
2018-May-15 18:59N 48°23' W 004°27'0 0.0
2018-May-15 18:29N 48°23' W 004°27'0 0.0
2018-May-15 17:59N 48°23' W 004°27'0 0.0
2018-May-15 17:29N 48°23' W 004°27'0 0.0
2018-May-15 16:59N 48°23' W 004°27'0 0.0
2018-May-15 16:29N 48°23' W 004°27'0 0.0
2018-May-15 15:59N 48°23' W 004°27'0 0.0
2018-May-15 15:29N 48°23' W 004°27'0 0.0
2018-May-15 14:59N 48°23' W 004°27'0 0.0
2018-May-15 14:29N 48°23' W 004°27'0 0.0
2018-May-15 13:59N 48°23' W 004°27'0 0.0
2018-May-15 13:29N 48°23' W 004°27'0 0.0
2018-May-15 12:59N 48°23' W 004°27'0 0.0
2018-May-15 12:29N 48°23' W 004°27'0 0.0
2018-May-15 11:59N 48°23' W 004°27'0 0.0
2018-May-15 11:29N 48°23' W 004°27'0 0.1
2018-May-15 11:00N 48°23' W 004°27'3 5.8
2018-May-15 10:30N 48°21' W 004°31'510.5
2018-May-15 10:00N 48°19' W 004°38'4 8.2
2018-May-15 09:30N 48°17' W 004°43'5 9.4
2018-May-15 09:00N 48°15' W 004°50'5 9.8
2018-May-15 08:30N 48°13' W 004°56'5 9.5
2018-May-15 08:00N 48°11' W 005°02'5 9.6
2018-May-15 07:30N 48°08' W 005°09'4 7.8
2018-May-15 07:00N 48°05' W 005°12'11 8.3
2018-May-15 05:39N 47°55' W 005°06'4 8.9
2018-May-15 05:15N 47°52' W 005°04'4 9.1
2018-May-15 04:51N 47°49' W 005°01'6 9.2
2018-May-15 04:12N 47°45' W 004°53'2 9.3
2018-May-15 03:58N 47°45' W 004°50'4 9.4
2018-May-15 03:30N 47°43' W 004°44'5 9.7
2018-May-15 03:00N 47°41' W 004°38'510.0
2018-May-15 02:30N 47°39' W 004°31'5 9.9
2018-May-15 02:00N 47°36' W 004°24'5 9.7
2018-May-15 01:30N 47°33' W 004°19'5 9.7
2018-May-15 01:00N 47°31' W 004°12'5 9.7
2018-May-15 00:30N 47°29' W 004°06'5 9.5
2018-May-15 00:00N 47°26' W 004°00'5 9.6
2018-May-14 23:30N 47°24' W 003°54'510.0
2018-May-14 23:00N 47°22' W 003°47'510.1
2018-May-14 22:30N 47°19' W 003°41'5 9.7
2018-May-14 22:00N 47°17' W 003°34'5 9.7
2018-May-14 21:30N 47°14' W 003°28'5 9.5
2018-May-14 21:00N 47°12' W 003°22'5 9.4
2018-May-14 20:30N 47°10' W 003°16'5 9.8
2018-May-14 20:00N 47°08' W 003°09'5 9.8
2018-May-14 19:30N 47°06' W 003°03'5 9.9
2018-May-14 19:00N 47°03' W 002°57'5 9.6
2018-May-14 18:30N 47°01' W 002°51'1 1.4
2018-May-14 18:00N 47°02' W 002°50'1 1.8
2018-May-14 17:30N 47°02' W 002°51'1 1.3
2018-May-14 17:00N 47°03' W 002°50'5 9.4
2018-May-14 16:30N 47°02' W 002°43'5 9.9
2018-May-14 15:58N 47°02' W 002°36'910.0
2018-May-14 15:02N 47°06' W 002°23'010.8
2018-May-14 15:00N 47°07' W 002°23'5 9.3
2018-May-14 14:30N 47°10' W 002°19'510.2
2018-May-14 14:00N 47°15' W 002°15'3 3.3
2018-May-14 13:14N 47°16' W 002°12'1 1.8
2018-May-14 12:47N 47°17' W 002°12'0 0.0
2018-May-14 12:29N 47°17' W 002°12'0 0.0
2018-May-14 11:50N 47°17' W 002°12'0 0.0
2018-May-14 11:29N 47°17' W 002°12'0 0.0
2018-May-14 10:56N 47°17' W 002°12'0 0.0
2018-May-14 10:29N 47°17' W 002°12'0 0.0
2018-May-14 09:59N 47°17' W 002°12'0 0.0
2018-May-14 09:26N 47°17' W 002°12'0 0.0
2018-May-14 08:56N 47°17' W 002°12'0 0.0
2018-May-14 08:29N 47°17' W 002°12'0 0.0
2018-May-14 07:59N 47°17' W 002°12'0 0.0
2018-May-14 07:29N 47°17' W 002°12'0 0.0
2018-May-14 06:59N 47°17' W 002°12'0 0.0
2018-May-14 06:29N 47°17' W 002°12'0 0.0
2018-May-14 05:59N 47°17' W 002°12'0 0.0
2018-May-14 05:29N 47°17' W 002°12'0 0.0
2018-May-14 04:56N 47°17' W 002°12'0 0.0
2018-May-14 04:26N 47°17' W 002°12'0 0.0
2018-May-14 03:50N 47°17' W 002°12'0 0.0
2018-May-14 03:26N 47°17' W 002°12'0 0.0
2018-May-14 02:56N 47°17' W 002°12'0 0.0
2018-May-14 02:29N 47°17' W 002°12'0 0.0
2018-May-14 01:59N 47°17' W 002°12'0 0.0
2018-May-14 01:20N 47°17' W 002°12'0 0.0
2018-May-14 00:50N 47°17' W 002°12'0 0.0
2018-May-14 00:29N 47°17' W 002°12'0 0.0
2018-May-13 23:56N 47°17' W 002°12'0 0.0
2018-May-13 23:26N 47°17' W 002°12'0 0.0
2018-May-13 22:59N 47°17' W 002°12'0 0.0
2018-May-13 22:29N 47°17' W 002°12'0 0.0
2018-May-13 21:59N 47°17' W 002°12'0 0.0
2018-May-13 21:29N 47°17' W 002°12'0 0.0
2018-May-13 20:59N 47°17' W 002°12'0 0.0
2018-May-13 20:29N 47°17' W 002°12'0 0.0
2018-May-13 19:59N 47°17' W 002°12'0 0.0
2018-May-13 19:26N 47°17' W 002°12'0 0.0
2018-May-13 18:50N 47°17' W 002°12'0 0.0
2018-May-13 18:29N 47°17' W 002°12'0 0.0
2018-May-13 17:56N 47°17' W 002°12'0 0.0
2018-May-13 17:20N 47°17' W 002°12'0 0.0
2018-May-13 16:47N 47°17' W 002°12'0 0.0
2018-May-13 16:29N 47°17' W 002°12'0 0.0
2018-May-13 15:53N 47°17' W 002°12'0 0.0
2018-May-13 15:29N 47°17' W 002°12'0 0.0
2018-May-13 14:59N 47°17' W 002°12'0 0.0
2018-May-13 14:23N 47°17' W 002°12'0 0.0
2018-May-13 13:11N 47°17' W 002°12'0 0.0
2018-May-13 12:47N 47°17' W 002°12'0 0.0
2018-May-13 12:17N 47°17' W 002°12'0 0.0
2018-May-13 11:20N 47°17' W 002°12'0 0.0
2018-May-13 10:53N 47°17' W 002°12'0 0.0
2018-May-13 10:29N 47°17' W 002°12'0 0.0
2018-May-13 09:53N 47°17' W 002°12'0 0.0
2018-May-13 09:14N 47°17' W 002°12'0 0.0
2018-May-13 08:53N 47°17' W 002°12'0 0.0
2018-May-13 08:17N 47°17' W 002°12'0 0.0
2018-May-13 07:41N 47°17' W 002°12'0 0.0
2018-May-13 07:29N 47°17' W 002°12'0 0.0
2018-May-13 06:59N 47°17' W 002°12'0 0.0
2018-May-13 06:29N 47°17' W 002°12'0 0.0
2018-May-13 05:59N 47°17' W 002°12'0 0.0
2018-May-13 05:20N 47°17' W 002°12'  
Track history (hours):
 
Tides and Currents Weather Stations Pressure Air Temp Water Temp Dewpoint Dewpoint Depression Visibility Wind Speed Wind Dir Waves Ship Positions

Cornion

Last reported at 2018-May-23 05:09 UTC. Time now 2018-May-23 10:28 UTC.
Position N 36°43' W 008°51'.

Length 90 m; draft 6.5 m.

Type: Cargo ship. MMSI: 255803370.

Date/timePositionNaut miles runAvg speedWind from/ knotsBaromVisibWave heightAir tempDewpointWater temp
2018-May-23 05:09N 36°43' W 008°51'2 9.9
2018-May-23 04:58N 36°43' W 008°49'3210.3
2018-May-23 01:50N 36°43' W 008°09'510.5
2018-May-23 01:24N 36°44' W 008°03'  
2018-May-19 23:24N 36°44' W 009°30'4 9.2
2018-May-19 22:57N 36°47' W 009°33'4 9.5
2018-May-19 22:29N 36°51' W 009°34'5 9.5
2018-May-19 21:58N 36°56' W 009°36'5 9.7
2018-May-19 21:26N 37°01' W 009°37'26 9.5
2018-May-19 18:39N 37°27' W 009°44'1 9.6
2018-May-19 18:30N 37°28' W 009°45'5 9.7
2018-May-19 18:00N 37°33' W 009°47'5 9.8
2018-May-19 17:30N 37°38' W 009°48'5 9.7
2018-May-19 17:00N 37°42' W 009°49'5 9.7
2018-May-19 16:30N 37°47' W 009°50'5 9.8
2018-May-19 16:00N 37°52' W 009°51'5 9.7
2018-May-19 15:30N 37°57' W 009°53'5 9.5
2018-May-19 14:59N 38°01' W 009°54'4 9.2
2018-May-19 14:30N 38°06' W 009°56'5 9.4
2018-May-19 14:00N 38°10' W 009°57'510.0
2018-May-19 13:30N 38°15' W 009°58'5 9.7
2018-May-19 12:58N 38°20' W 009°60'510.0
2018-May-19 12:29N 38°25' W 010°01'13 9.9
2018-May-19 11:09N 38°38' W 010°05'1 9.7
2018-May-19 11:00N 38°39' W 010°05'5 9.6
2018-May-19 10:30N 38°44' W 010°06'1210.0
2018-May-19 09:21N 38°56' W 010°06'411.1
2018-May-19 09:00N 38°59' W 010°06'510.7
2018-May-19 08:30N 39°05' W 010°06'  
2018-May-16 17:33N 48°08' W 005°12'5 8.0
2018-May-16 16:59N 48°10' W 005°06'4 7.5
2018-May-16 16:30N 48°11' W 005°01'4 8.8
2018-May-16 16:00N 48°14' W 004°55'4 8.9
2018-May-16 15:30N 48°16' W 004°49'4 9.1
2018-May-16 15:00N 48°18' W 004°43'5 9.4
2018-May-16 14:30N 48°20' W 004°37'4 7.0
2018-May-16 14:00N 48°21' W 004°32'4 7.5
2018-May-16 13:30N 48°23' W 004°27'0 0.5
2018-May-16 12:59N 48°23' W 004°27'0 0.0
2018-May-16 12:29N 48°23' W 004°27'0 0.0
2018-May-16 11:59N 48°23' W 004°27'0 0.0
2018-May-16 11:29N 48°23' W 004°27'0 0.0
2018-May-16 10:59N 48°23' W 004°27'0 0.0
2018-May-16 10:29N 48°23' W 004°27'0 0.0
2018-May-16 09:59N 48°23' W 004°27'0 0.0
2018-May-16 09:29N 48°23' W 004°27'0 0.0
2018-May-16 08:59N 48°23' W 004°27'0 0.0
2018-May-16 08:29N 48°23' W 004°27'0 0.0
2018-May-16 07:59N 48°23' W 004°27'0 0.0
2018-May-16 07:29N 48°23' W 004°27'0 0.0
2018-May-16 06:59N 48°23' W 004°27'0 0.0
2018-May-16 06:29N 48°23' W 004°27'0 0.0
2018-May-16 05:59N 48°23' W 004°27'0 0.0
2018-May-16 05:29N 48°23' W 004°27'0 0.0
2018-May-16 04:59N 48°23' W 004°27'0 0.0
2018-May-16 04:29N 48°23' W 004°27'0 0.0
2018-May-16 03:59N 48°23' W 004°27'0 0.0
2018-May-16 03:29N 48°23' W 004°27'0 0.0
2018-May-16 02:59N 48°23' W 004°27'0 0.0
2018-May-16 02:29N 48°23' W 004°27'0 0.0
2018-May-16 01:59N 48°23' W 004°27'0 0.0
2018-May-16 01:29N 48°23' W 004°27'0 0.0
2018-May-16 00:59N 48°23' W 004°27'0 0.0
2018-May-16 00:29N 48°23' W 004°27'0 0.0
2018-May-15 23:59N 48°23' W 004°27'0 0.0
2018-May-15 23:29N 48°23' W 004°27'0 0.0
2018-May-15 22:59N 48°23' W 004°27'0 0.0
2018-May-15 22:29N 48°23' W 004°27'0 0.0
2018-May-15 21:59N 48°23' W 004°27'0 0.0
2018-May-15 21:29N 48°23' W 004°27'0 0.0
2018-May-15 20:59N 48°23' W 004°27'0 0.0
2018-May-15 20:29N 48°23' W 004°27'0 0.0
2018-May-15 19:59N 48°23' W 004°27'0 0.0
2018-May-15 19:29N 48°23' W 004°27'0 0.0
2018-May-15 18:59N 48°23' W 004°27'0 0.0
2018-May-15 18:29N 48°23' W 004°27'0 0.0
2018-May-15 17:59N 48°23' W 004°27'0 0.0
2018-May-15 17:29N 48°23' W 004°27'0 0.0
2018-May-15 16:59N 48°23' W 004°27'0 0.0
2018-May-15 16:29N 48°23' W 004°27'0 0.0
2018-May-15 15:59N 48°23' W 004°27'0 0.0
2018-May-15 15:29N 48°23' W 004°27'0 0.0
2018-May-15 14:59N 48°23' W 004°27'0 0.0
2018-May-15 14:29N 48°23' W 004°27'0 0.0
2018-May-15 13:59N 48°23' W 004°27'0 0.0
2018-May-15 13:29N 48°23' W 004°27'0 0.0
2018-May-15 12:59N 48°23' W 004°27'0 0.0
2018-May-15 12:29N 48°23' W 004°27'0 0.0
2018-May-15 11:59N 48°23' W 004°27'0 0.0
2018-May-15 11:29N 48°23' W 004°27'0 0.1
2018-May-15 11:00N 48°23' W 004°27'3 5.8
2018-May-15 10:30N 48°21' W 004°31'510.5
2018-May-15 10:00N 48°19' W 004°38'4 8.2
2018-May-15 09:30N 48°17' W 004°43'5 9.4
2018-May-15 09:00N 48°15' W 004°50'5 9.8
2018-May-15 08:30N 48°13' W 004°56'5 9.5
2018-May-15 08:00N 48°11' W 005°02'5 9.6
2018-May-15 07:30N 48°08' W 005°09'4 7.8
2018-May-15 07:00N 48°05' W 005°12'11 8.3
2018-May-15 05:39N 47°55' W 005°06'4 8.9
2018-May-15 05:15N 47°52' W 005°04'4 9.1
2018-May-15 04:51N 47°49' W 005°01'6 9.2
2018-May-15 04:12N 47°45' W 004°53'2 9.3
2018-May-15 03:58N 47°45' W 004°50'4 9.4
2018-May-15 03:30N 47°43' W 004°44'5 9.7
2018-May-15 03:00N 47°41' W 004°38'510.0
2018-May-15 02:30N 47°39' W 004°31'5 9.9
2018-May-15 02:00N 47°36' W 004°24'5 9.7
2018-May-15 01:30N 47°33' W 004°19'5 9.7
2018-May-15 01:00N 47°31' W 004°12'5 9.7
2018-May-15 00:30N 47°29' W 004°06'5 9.5
2018-May-15 00:00N 47°26' W 004°00'5 9.6
2018-May-14 23:30N 47°24' W 003°54'510.0
2018-May-14 23:00N 47°22' W 003°47'510.1
2018-May-14 22:30N 47°19' W 003°41'5 9.7
2018-May-14 22:00N 47°17' W 003°34'5 9.7
2018-May-14 21:30N 47°14' W 003°28'5 9.5
2018-May-14 21:00N 47°12' W 003°22'5 9.4
2018-May-14 20:30N 47°10' W 003°16'5 9.8
2018-May-14 20:00N 47°08' W 003°09'5 9.8
2018-May-14 19:30N 47°06' W 003°03'5 9.9
2018-May-14 19:00N 47°03' W 002°57'5 9.6
2018-May-14 18:30N 47°01' W 002°51'1 1.4
2018-May-14 18:00N 47°02' W 002°50'1 1.8
2018-May-14 17:30N 47°02' W 002°51'1 1.3
2018-May-14 17:00N 47°03' W 002°50'5 9.4
2018-May-14 16:30N 47°02' W 002°43'5 9.9
2018-May-14 15:58N 47°02' W 002°36'910.0
2018-May-14 15:02N 47°06' W 002°23'010.8
2018-May-14 15:00N 47°07' W 002°23'5 9.3
2018-May-14 14:30N 47°10' W 002°19'510.2
2018-May-14 14:00N 47°15' W 002°15'3 3.3
2018-May-14 13:14N 47°16' W 002°12'1 1.8
2018-May-14 12:47N 47°17' W 002°12'0 0.0
2018-May-14 12:29N 47°17' W 002°12'0 0.0
2018-May-14 11:50N 47°17' W 002°12'0 0.0
2018-May-14 11:29N 47°17' W 002°12'0 0.0
2018-May-14 10:56N 47°17' W 002°12'0 0.0
2018-May-14 10:29N 47°17' W 002°12'0 0.0
2018-May-14 09:59N 47°17' W 002°12'0 0.0
2018-May-14 09:26N 47°17' W 002°12'0 0.0
2018-May-14 08:56N 47°17' W 002°12'0 0.0
2018-May-14 08:29N 47°17' W 002°12'0 0.0
2018-May-14 07:59N 47°17' W 002°12'0 0.0
2018-May-14 07:29N 47°17' W 002°12'0 0.0
2018-May-14 06:59N 47°17' W 002°12'0 0.0
2018-May-14 06:29N 47°17' W 002°12'0 0.0
2018-May-14 05:59N 47°17' W 002°12'0 0.0
2018-May-14 05:29N 47°17' W 002°12'0 0.0
2018-May-14 04:56N 47°17' W 002°12'0 0.0
2018-May-14 04:26N 47°17' W 002°12'0 0.0
2018-May-14 03:50N 47°17' W 002°12'0 0.0
2018-May-14 03:26N 47°17' W 002°12'0 0.0
2018-May-14 02:56N 47°17' W 002°12'0 0.0
2018-May-14 02:29N 47°17' W 002°12'0 0.0
2018-May-14 01:59N 47°17' W 002°12'0 0.0
2018-May-14 01:20N 47°17' W 002°12'0 0.0
2018-May-14 00:50N 47°17' W 002°12'0 0.0
2018-May-14 00:29N 47°17' W 002°12'0 0.0
2018-May-13 23:56N 47°17' W 002°12'0 0.0
2018-May-13 23:26N 47°17' W 002°12'0 0.0
2018-May-13 22:59N 47°17' W 002°12'0 0.0
2018-May-13 22:29N 47°17' W 002°12'0 0.0
2018-May-13 21:59N 47°17' W 002°12'0 0.0
2018-May-13 21:29N 47°17' W 002°12'0 0.0
2018-May-13 20:59N 47°17' W 002°12'0 0.0
2018-May-13 20:29N 47°17' W 002°12'0 0.0
2018-May-13 19:59N 47°17' W 002°12'0 0.0
2018-May-13 19:26N 47°17' W 002°12'0 0.0
2018-May-13 18:50N 47°17' W 002°12'0 0.0
2018-May-13 18:29N 47°17' W 002°12'0 0.0
2018-May-13 17:56N 47°17' W 002°12'0 0.0
2018-May-13 17:20N 47°17' W 002°12'0 0.0
2018-May-13 16:47N 47°17' W 002°12'0 0.0
2018-May-13 16:29N 47°17' W 002°12'0 0.0
2018-May-13 15:53N 47°17' W 002°12'0 0.0
2018-May-13 15:29N 47°17' W 002°12'0 0.0
2018-May-13 14:59N 47°17' W 002°12'0 0.0
2018-May-13 14:23N 47°17' W 002°12'0 0.0
2018-May-13 13:11N 47°17' W 002°12'0 0.0
2018-May-13 12:47N 47°17' W 002°12'0 0.0
2018-May-13 12:17N 47°17' W 002°12'0 0.0
2018-May-13 11:20N 47°17' W 002°12'0 0.0
2018-May-13 10:53N 47°17' W 002°12'0 0.0
2018-May-13 10:29N 47°17' W 002°12'0 0.0
2018-May-13 09:53N 47°17' W 002°12'0 0.0
2018-May-13 09:14N 47°17' W 002°12'0 0.0
2018-May-13 08:53N 47°17' W 002°12'0 0.0
2018-May-13 08:17N 47°17' W 002°12'0 0.0
2018-May-13 07:41N 47°17' W 002°12'0 0.0
2018-May-13 07:29N 47°17' W 002°12'0 0.0
2018-May-13 06:59N 47°17' W 002°12'0 0.0
2018-May-13 06:29N 47°17' W 002°12'0 0.0
2018-May-13 05:59N 47°17' W 002°12'0 0.0
2018-May-13 05:20N 47°17' W 002°12'  

Dump ship's entire track history